createdAt,value
2023-05-05T00:00:20.851Z,100877.78
2023-05-05T00:05:23.928Z,100870.88
2023-05-05T00:10:25.435Z,100872.53
2023-05-05T00:15:27.455Z,100875.34
2023-05-05T00:20:28.767Z,100874.34
2023-05-05T00:25:30.098Z,100871.50
2023-05-05T00:30:33.524Z,100868.28
2023-05-05T00:35:34.876Z,100867.88
2023-05-05T00:40:37.061Z,100869.09
2023-05-05T00:45:42.653Z,100876.13
2023-05-05T00:50:45.192Z,100879.78
2023-05-05T00:55:46.566Z,100886.22
2023-05-05T01:00:48.588Z,100868.28
2023-05-05T01:06:04.903Z,100859.41
2023-05-05T01:11:27.069Z,100881.16
2023-05-05T01:16:30.799Z,100879.53
2023-05-05T01:21:36.180Z,100884.34
2023-05-05T01:26:43.711Z,100887.91
2023-05-05T01:31:51.914Z,100890.09
2023-05-05T01:36:57.108Z,100890.69
2023-05-05T01:42:02.464Z,100891.63
2023-05-05T01:47:05.017Z,100890.94
2023-05-05T01:52:06.767Z,100900.06
2023-05-05T01:57:10.012Z,100904.03
2023-05-05T02:02:12.998Z,100907.03
2023-05-05T02:07:15.250Z,100911.41
2023-05-05T02:12:18.546Z,100909.56
2023-05-05T02:17:21.762Z,100917.19
2023-05-05T02:22:23.080Z,100920.28
2023-05-05T02:27:25.396Z,100912.69
2023-05-05T02:32:31.454Z,100919.47
2023-05-05T02:37:33.936Z,100916.25
2023-05-05T02:42:36.812Z,100922.53
2023-05-05T02:47:38.871Z,100932.66
2023-05-05T02:52:40.314Z,100930.63
2023-05-05T02:57:47.467Z,100939.38
2023-05-05T03:02:48.856Z,100948.00
2023-05-05T03:08:02.357Z,100952.66
2023-05-05T03:13:06.896Z,100946.44
2023-05-05T03:18:09.008Z,100952.91
2023-05-05T03:23:10.967Z,100948.66
2023-05-05T03:28:12.589Z,100949.03
2023-05-05T03:33:13.977Z,100953.16
2023-05-05T03:38:15.281Z,100951.44
2023-05-05T03:43:16.834Z,100960.78
2023-05-05T03:48:18.134Z,100959.28
2023-05-05T03:53:19.432Z,100962.03
2023-05-05T03:58:20.851Z,100967.69
2023-05-05T04:03:22.667Z,100967.31
2023-05-05T04:08:24.165Z,100970.53
2023-05-05T04:13:25.527Z,100972.78
2023-05-05T04:18:26.920Z,100978.38
2023-05-05T04:23:28.269Z,100987.84
2023-05-05T04:28:29.780Z,100992.22
2023-05-05T04:33:31.209Z,100994.09
2023-05-05T04:38:32.832Z,100986.59
2023-05-05T04:43:34.329Z,100992.19
2023-05-05T04:48:37.044Z,100990.34
2023-05-05T04:53:38.537Z,100994.00
2023-05-05T04:58:39.846Z,101001.41
2023-05-05T05:03:41.471Z,100995.66
2023-05-05T05:08:42.901Z,101000.41
2023-05-05T05:13:44.205Z,101009.31
2023-05-05T05:18:45.581Z,101010.94
2023-05-05T05:23:47.322Z,101016.69
2023-05-05T05:28:48.849Z,101026.38
2023-05-05T05:33:51.009Z,101017.03
2023-05-05T05:38:52.305Z,101017.72
2023-05-05T05:43:53.635Z,101014.13
2023-05-05T05:48:55.009Z,101026.00
2023-05-05T05:53:57.491Z,101025.44
2023-05-05T05:59:01.358Z,101024.59
2023-05-05T06:04:02.950Z,101023.16
2023-05-05T06:09:04.279Z,101027.75
2023-05-05T06:14:05.631Z,101020.88
2023-05-05T06:19:09.588Z,101032.47
2023-05-05T06:24:10.906Z,101023.94
2023-05-05T06:29:12.423Z,101035.94
2023-05-05T06:34:13.837Z,101048.41
2023-05-05T06:39:16.172Z,101053.78
2023-05-05T06:44:17.588Z,101045.91
2023-05-05T06:49:18.999Z,101051.84
2023-05-05T06:54:20.377Z,101043.19
2023-05-05T06:59:21.663Z,101036.84
2023-05-05T07:04:23.052Z,101029.03
2023-05-05T07:09:24.375Z,101033.72
2023-05-05T07:14:26.163Z,101028.13
2023-05-05T07:19:27.506Z,101036.19
2023-05-05T07:24:28.822Z,101040.78
2023-05-05T07:29:30.856Z,101034.13
2023-05-05T07:34:34.300Z,101036.41
2023-05-05T07:39:35.755Z,101048.50
2023-05-05T07:44:37.068Z,101051.16
2023-05-05T07:49:38.369Z,101043.44
2023-05-05T07:54:39.756Z,101041.59
2023-05-05T07:59:43.370Z,101043.94
2023-05-05T08:04:44.795Z,101042.91
2023-05-05T08:09:46.190Z,101042.13
2023-05-05T08:14:47.580Z,101030.78
2023-05-05T08:19:51.518Z,101029.13
2023-05-05T08:24:52.861Z,101021.34
2023-05-05T08:29:54.160Z,101015.97
2023-05-05T08:34:56.474Z,101015.91
2023-05-05T08:39:58.461Z,101016.38
2023-05-05T08:44:59.931Z,101014.19
2023-05-05T08:50:02.037Z,101007.34
2023-05-05T08:55:12.825Z,100997.09
2023-05-05T09:00:14.640Z,100991.84
2023-05-05T09:05:17.638Z,100987.63
2023-05-05T09:10:19.004Z,100989.22
2023-05-05T09:15:20.571Z,100987.09
2023-05-05T09:20:22.161Z,100983.72
2023-05-05T09:25:23.477Z,100981.25
2023-05-05T09:30:25.235Z,100981.16
2023-05-05T09:35:26.799Z,100982.81
2023-05-05T09:40:44.029Z,100978.06
2023-05-05T09:45:46.078Z,100975.97
2023-05-05T09:50:47.766Z,100976.41
2023-05-05T09:56:07.474Z,100980.38
2023-05-05T10:01:21.088Z,100971.41
2023-05-05T10:06:39.070Z,100973.13
2023-05-05T10:11:44.884Z,100977.41
2023-05-05T10:16:50.836Z,100978.97
2023-05-05T10:21:53.113Z,100974.41
2023-05-05T10:26:56.354Z,100969.84
2023-05-05T10:32:08.736Z,100965.97
2023-05-05T10:37:19.032Z,100955.91
2023-05-05T10:42:21.083Z,100950.56
2023-05-05T10:47:22.617Z,100941.38
2023-05-05T10:52:37.784Z,100939.28
2023-05-05T10:57:40.521Z,100933.47
2023-05-05T11:02:42.001Z,100924.94
2023-05-05T11:07:47.309Z,100917.25
2023-05-05T11:12:52.072Z,100921.53
2023-05-05T11:17:54.331Z,100908.81
2023-05-05T11:23:05.348Z,100909.66
2023-05-05T11:28:07.102Z,100912.38
2023-05-05T11:33:25.568Z,100911.94
2023-05-05T11:38:33.264Z,100915.84
2023-05-05T11:43:34.639Z,100909.38
2023-05-05T11:48:43.912Z,100902.38
2023-05-05T11:53:46.470Z,100900.53
2023-05-05T11:59:06.087Z,100895.09
2023-05-05T12:04:08.537Z,100898.44
2023-05-05T12:09:20.125Z,100922.44
2023-05-05T12:14:21.746Z,100933.16
2023-05-05T12:19:23.699Z,100937.16
2023-05-05T12:24:25.058Z,100946.44
2023-05-05T12:29:28.664Z,100949.25
2023-05-05T12:34:31.249Z,100958.00
2023-05-05T12:39:36.549Z,100960.41
2023-05-05T12:44:38.850Z,100971.09
2023-05-05T12:49:50.399Z,100998.53
2023-05-05T12:54:54.862Z,100999.81
2023-05-05T12:59:56.590Z,100984.84
2023-05-05T13:04:57.970Z,100976.38
2023-05-05T13:10:06.834Z,100967.72
2023-05-05T13:15:08.757Z,100968.06
2023-05-05T13:20:11.241Z,100964.09
2023-05-05T13:25:12.777Z,100961.28
2023-05-05T13:30:14.368Z,100950.53
2023-05-05T13:35:16.537Z,100939.56
2023-05-05T13:40:18.279Z,100938.22
2023-05-05T13:45:19.757Z,100932.09
2023-05-05T13:50:21.081Z,100935.28
2023-05-05T13:55:22.583Z,100939.75
2023-05-05T14:00:24.001Z,100945.03
2023-05-05T14:05:25.392Z,100931.78
2023-05-05T14:10:29.703Z,100936.28
2023-05-05T14:15:31.046Z,100931.13
2023-05-05T14:20:32.404Z,100934.66
2023-05-05T14:25:33.801Z,100929.09
2023-05-05T14:30:35.196Z,100909.91
2023-05-05T14:35:36.563Z,100920.50
2023-05-05T14:40:37.887Z,100920.91
2023-05-05T14:45:39.403Z,100912.94
2023-05-05T14:50:42.384Z,100898.59
2023-05-05T14:55:44.455Z,100912.72
2023-05-05T15:00:45.823Z,100916.78
2023-05-05T15:05:47.146Z,100921.22
2023-05-05T15:10:48.461Z,100930.38
2023-05-05T15:15:50.034Z,100924.94
2023-05-05T15:20:51.428Z,100921.50
2023-05-05T15:25:52.744Z,100907.44
2023-05-05T15:30:54.067Z,100904.69
2023-05-05T15:35:55.364Z,100901.72
2023-05-05T15:40:56.702Z,100895.44
2023-05-05T15:45:58.022Z,100907.97
2023-05-05T15:50:59.332Z,100895.75
2023-05-05T15:56:00.765Z,100890.75
2023-05-05T16:01:02.179Z,100898.16
2023-05-05T16:06:03.616Z,100894.81
2023-05-05T16:11:05.047Z,100899.84
2023-05-05T16:16:06.789Z,100902.75
2023-05-05T16:21:08.175Z,100902.50
2023-05-05T16:26:09.480Z,100890.81
2023-05-05T16:31:11.130Z,100893.13
2023-05-05T16:36:12.823Z,100896.47
2023-05-05T16:41:14.254Z,100904.53
2023-05-05T16:46:15.715Z,100907.22
2023-05-05T16:51:17.015Z,100898.09
2023-05-05T16:56:18.392Z,100893.25
2023-05-05T17:01:19.787Z,100907.41
2023-05-05T17:06:21.100Z,100910.06
2023-05-05T17:11:22.567Z,100911.31
2023-05-05T17:16:23.954Z,100915.25
2023-05-05T17:21:25.291Z,100926.72
2023-05-05T17:26:26.594Z,100922.16
2023-05-05T17:31:28.007Z,100929.63
2023-05-05T17:36:29.401Z,100932.34
2023-05-05T17:41:30.822Z,100936.81
2023-05-05T17:46:32.127Z,100935.00
2023-05-05T17:51:33.508Z,100941.09
2023-05-05T17:56:36.650Z,100940.97
2023-05-05T18:01:38.025Z,100954.38
2023-05-05T18:06:39.340Z,100952.88
2023-05-05T18:11:42.097Z,100962.84
2023-05-05T18:16:48.646Z,100965.19
2023-05-05T18:21:51.560Z,100968.78
2023-05-05T18:26:52.894Z,100968.47
2023-05-05T18:31:54.906Z,100978.59
2023-05-05T18:36:57.080Z,100980.13
2023-05-05T18:41:58.419Z,100986.16
2023-05-05T18:46:59.833Z,100988.63
2023-05-05T18:52:01.248Z,100989.34
2023-05-05T18:57:03.394Z,100990.59
2023-05-05T19:02:04.731Z,100983.22
2023-05-05T19:07:06.490Z,100999.16
2023-05-05T19:12:07.880Z,101011.88
2023-05-05T19:17:09.206Z,101018.88
2023-05-05T19:22:10.525Z,101027.22
2023-05-05T19:27:15.383Z,101032.84
2023-05-05T19:32:18.720Z,101026.50
2023-05-05T19:37:20.469Z,101049.66
2023-05-05T19:42:21.767Z,101047.50
2023-05-05T19:47:23.156Z,101055.81
2023-05-05T19:52:24.506Z,101053.06
2023-05-05T19:57:26.309Z,101058.25
2023-05-05T20:02:28.424Z,101070.66
2023-05-05T20:07:29.804Z,101067.66
2023-05-05T20:12:31.194Z,101076.53
2023-05-05T20:17:32.551Z,101071.34
2023-05-05T20:22:33.969Z,101065.28
2023-05-05T20:27:36.097Z,101076.66
2023-05-05T20:32:37.988Z,101076.13
2023-05-05T20:37:39.356Z,101080.59
2023-05-05T20:42:40.724Z,101075.34
2023-05-05T20:47:42.077Z,101075.13
2023-05-05T20:52:43.392Z,101070.31
2023-05-05T20:57:44.703Z,101061.69
2023-05-05T21:02:46.197Z,101070.84
2023-05-05T21:07:47.657Z,101078.75
2023-05-05T21:12:49.044Z,101073.28
2023-05-05T21:17:51.134Z,101075.09
2023-05-05T21:22:52.520Z,101071.84
2023-05-05T21:27:53.818Z,101068.22
2023-05-05T21:32:55.208Z,101071.22
2023-05-05T21:37:56.613Z,101079.69
2023-05-05T21:42:57.980Z,101086.28
2023-05-05T21:47:59.335Z,101088.09
2023-05-05T21:53:00.654Z,101096.94
2023-05-05T21:58:01.928Z,101093.28
2023-05-05T22:03:03.492Z,101081.19
2023-05-05T22:08:04.866Z,101084.22
2023-05-05T22:13:06.371Z,101073.75
2023-05-05T22:18:07.830Z,101086.81
2023-05-05T22:23:09.295Z,101079.19
2023-05-05T22:28:11.344Z,101089.69
2023-05-05T22:33:13.090Z,101093.91
2023-05-05T22:38:14.408Z,101092.50
2023-05-05T22:43:15.752Z,101096.31
2023-05-05T22:48:17.150Z,101102.91
2023-05-05T22:53:18.510Z,101101.69
2023-05-05T22:58:19.825Z,101101.00
2023-05-05T23:03:21.124Z,101092.59
2023-05-05T23:08:23.963Z,101081.91
2023-05-05T23:13:25.426Z,101082.16
2023-05-05T23:18:26.741Z,101075.09
2023-05-05T23:23:28.022Z,101081.78
2023-05-05T23:28:29.325Z,101083.78
2023-05-05T23:33:30.765Z,101078.72
2023-05-05T23:38:32.067Z,101079.72
2023-05-05T23:43:33.426Z,101075.22
2023-05-05T23:48:34.734Z,101076.59
2023-05-05T23:53:36.021Z,101072.78
2023-05-05T23:58:37.514Z,101079.41
